createdAt,value
2023-03-06T00:00:27.254Z,99803.38
2023-03-06T00:02:54.579Z,99795.53
2023-03-06T00:05:22.145Z,99799.84
2023-03-06T00:07:49.440Z,99797.25
2023-03-06T00:10:18.093Z,99798.19
2023-03-06T00:12:45.353Z,99794.69
2023-03-06T00:15:13.020Z,99790.31
2023-03-06T00:17:40.306Z,99787.72
2023-03-06T00:20:08.539Z,99791.25
2023-03-06T00:22:35.772Z,99785.22
2023-03-06T00:25:09.314Z,99781.72
2023-03-06T00:27:36.587Z,99789.53
2023-03-06T00:30:05.207Z,99780.78
2023-03-06T00:32:32.590Z,99786.03
2023-03-06T00:34:59.835Z,99778.25
2023-03-06T00:37:28.289Z,99777.44
2023-03-06T00:39:56.311Z,99770.47
2023-03-06T00:42:25.419Z,99770.47
2023-03-06T00:44:52.789Z,99777.44
2023-03-06T00:47:20.031Z,99769.59
2023-03-06T00:49:50.496Z,99773.94
2023-03-06T00:52:17.816Z,99777.44
2023-03-06T00:54:45.068Z,99765.28
2023-03-06T00:57:12.274Z,99772.28
2023-03-06T00:59:40.107Z,99768.75
2023-03-06T01:02:07.422Z,99763.53
2023-03-06T01:04:34.767Z,99759.13
2023-03-06T01:07:02.246Z,99758.34
2023-03-06T01:09:31.404Z,99751.41
2023-03-06T01:11:58.842Z,99746.22
2023-03-06T01:14:29.125Z,99754.88
2023-03-06T01:16:56.442Z,99740.91
2023-03-06T01:19:23.684Z,99742.72
2023-03-06T01:21:51.967Z,99756.69
2023-03-06T01:24:19.232Z,99752.31
2023-03-06T01:26:47.482Z,99761.88
2023-03-06T01:29:19.113Z,99758.34
2023-03-06T01:31:47.509Z,99758.31
2023-03-06T01:34:15.044Z,99756.59
2023-03-06T01:36:42.455Z,99765.34
2023-03-06T01:39:09.679Z,99765.38
2023-03-06T01:41:37.005Z,99767.22
2023-03-06T01:44:04.323Z,99761.13
2023-03-06T01:46:33.971Z,99764.59
2023-03-06T01:49:02.925Z,99763.78
2023-03-06T01:51:39.757Z,99770.78
2023-03-06T01:54:09.502Z,99771.66
2023-03-06T01:56:37.141Z,99772.59
2023-03-06T01:59:04.749Z,99767.38
2023-03-06T02:01:32.771Z,99760.34
2023-03-06T02:04:00.760Z,99765.63
2023-03-06T02:06:31.512Z,99767.28
2023-03-06T02:09:04.007Z,99756.84
2023-03-06T02:11:31.288Z,99758.56
2023-03-06T02:13:59.193Z,99761.22
2023-03-06T02:16:30.915Z,99762.06
2023-03-06T02:19:00.782Z,99758.59
2023-03-06T02:21:31.678Z,99759.44
2023-03-06T02:24:11.172Z,99751.59
2023-03-06T02:26:39.520Z,99744.63
2023-03-06T02:29:07.447Z,99748.91
2023-03-06T02:31:35.691Z,99749.78
2023-03-06T02:34:04.625Z,99747.13
2023-03-06T02:36:33.589Z,99739.25
2023-03-06T02:39:01.730Z,99753.19
2023-03-06T02:41:29.328Z,99757.63
2023-03-06T02:43:56.846Z,99762.94
2023-03-06T02:46:24.144Z,99751.56
2023-03-06T02:48:52.268Z,99751.59
2023-03-06T02:51:22.180Z,99748.09
2023-03-06T02:53:50.313Z,99747.22
2023-03-06T02:56:19.315Z,99746.31
2023-03-06T02:58:46.674Z,99746.34
2023-03-06T03:01:14.267Z,99737.66
2023-03-06T03:03:43.287Z,99735.88
2023-03-06T03:06:11.189Z,99732.38
2023-03-06T03:08:40.625Z,99730.66
2023-03-06T03:11:09.408Z,99723.69
2023-03-06T03:13:40.118Z,99725.44
2023-03-06T03:16:14.251Z,99730.69
2023-03-06T03:18:44.445Z,99732.50
2023-03-06T03:21:12.885Z,99736.97
2023-03-06T03:23:40.498Z,99731.69
2023-03-06T03:26:08.079Z,99718.59
2023-03-06T03:28:36.968Z,99713.25
2023-03-06T03:31:08.885Z,99721.97
2023-03-06T03:33:36.888Z,99719.38
2023-03-06T03:36:05.817Z,99720.31
2023-03-06T03:38:35.277Z,99723.75
2023-03-06T03:41:03.149Z,99727.19
2023-03-06T03:43:31.507Z,99723.72
2023-03-06T03:45:59.776Z,99732.50
2023-03-06T03:48:27.060Z,99730.78
2023-03-06T03:51:04.380Z,99727.38
2023-03-06T03:53:31.634Z,99724.75
2023-03-06T03:55:59.482Z,99719.47
2023-03-06T03:58:27.704Z,99709.00
2023-03-06T04:00:56.203Z,99713.34
2023-03-06T04:03:23.557Z,99713.34
2023-03-06T04:05:54.020Z,99708.19
2023-03-06T04:08:22.108Z,99722.13
2023-03-06T04:10:51.263Z,99723.00
2023-03-06T04:13:21.084Z,99722.19
2023-03-06T04:15:51.544Z,99718.75
2023-03-06T04:18:21.019Z,99733.56
2023-03-06T04:20:50.260Z,99725.69
2023-03-06T04:23:19.698Z,99725.66
2023-03-06T04:25:47.237Z,99718.66
2023-03-06T04:28:14.712Z,99732.56
2023-03-06T04:30:42.502Z,99713.44
2023-03-06T04:33:09.983Z,99723.88
2023-03-06T04:35:39.950Z,99722.13
2023-03-06T04:38:13.187Z,99716.00
2023-03-06T04:40:42.269Z,99707.28
2023-03-06T04:43:11.276Z,99712.56
2023-03-06T04:45:38.602Z,99706.47
2023-03-06T04:48:06.296Z,99709.94
2023-03-06T04:50:36.544Z,99716.84
2023-03-06T04:53:04.828Z,99722.13
2023-03-06T04:55:34.991Z,99712.56
2023-03-06T04:58:02.482Z,99715.22
2023-03-06T05:00:31.705Z,99710.00
2023-03-06T05:03:00.259Z,99711.69
2023-03-06T05:05:27.685Z,99702.94
2023-03-06T05:07:55.126Z,99702.09
2023-03-06T05:10:23.803Z,99700.31
2023-03-06T05:12:51.614Z,99706.34
2023-03-06T05:15:18.929Z,99697.56
2023-03-06T05:17:47.590Z,99699.38
2023-03-06T05:20:15.619Z,99690.84
2023-03-06T05:22:43.179Z,99695.31
2023-03-06T05:25:10.875Z,99694.53
2023-03-06T05:27:38.671Z,99691.00
2023-03-06T05:30:06.344Z,99694.56
2023-03-06T05:32:35.738Z,99692.88
2023-03-06T05:35:03.736Z,99681.53
2023-03-06T05:37:31.458Z,99689.41
2023-03-06T05:39:59.154Z,99689.41
2023-03-06T05:42:28.821Z,99700.72
2023-03-06T05:44:57.330Z,99691.09
2023-03-06T05:47:26.637Z,99694.69
2023-03-06T05:49:54.666Z,99692.94
2023-03-06T05:52:21.940Z,99689.47
2023-03-06T05:54:55.749Z,99698.13
2023-03-06T05:57:24.919Z,99692.94
2023-03-06T05:59:52.173Z,99701.59
2023-03-06T06:02:20.941Z,99707.66
2023-03-06T06:04:49.425Z,99706.81
2023-03-06T06:07:17.184Z,99717.34
2023-03-06T06:09:45.684Z,99723.44
2023-03-06T06:12:14.967Z,99724.34
2023-03-06T06:14:42.222Z,99726.16
2023-03-06T06:17:09.562Z,99741.75
2023-03-06T06:19:36.767Z,99728.69
2023-03-06T06:22:04.762Z,99743.50
2023-03-06T06:24:32.219Z,99729.56
2023-03-06T06:27:01.466Z,99730.34
2023-03-06T06:29:30.898Z,99738.16
2023-03-06T06:31:58.244Z,99731.19
2023-03-06T06:34:26.613Z,99736.41
2023-03-06T06:36:54.576Z,99739.91
2023-03-06T06:39:22.834Z,99745.06
2023-03-06T06:42:03.029Z,99745.13
2023-03-06T06:44:37.819Z,99748.69
2023-03-06T06:47:23.966Z,99746.88
2023-03-06T06:49:53.172Z,99753.78
2023-03-06T06:52:20.601Z,99759.06
2023-03-06T06:54:49.212Z,99753.94
2023-03-06T06:57:17.621Z,99766.97
2023-03-06T06:59:44.851Z,99757.44
2023-03-06T07:02:13.245Z,99773.09
2023-03-06T07:04:49.352Z,99776.63
2023-03-06T07:07:26.511Z,99774.88
2023-03-06T07:09:55.677Z,99770.53
2023-03-06T07:12:23.096Z,99778.34
2023-03-06T07:14:51.533Z,99767.84
2023-03-06T07:17:18.803Z,99784.44
2023-03-06T07:19:46.058Z,99780.00
2023-03-06T07:22:13.672Z,99783.50
2023-03-06T07:24:40.899Z,99790.50
2023-03-06T07:27:08.191Z,99797.44
2023-03-06T07:29:37.532Z,99792.16
2023-03-06T07:32:06.011Z,99797.38
2023-03-06T07:34:39.499Z,99799.97
2023-03-06T07:37:06.807Z,99806.03
2023-03-06T07:39:34.057Z,99800.75
2023-03-06T07:42:01.325Z,99802.31
2023-03-06T07:44:28.548Z,99805.78
2023-03-06T07:46:55.949Z,99808.31
2023-03-06T07:49:23.352Z,99814.34
2023-03-06T07:51:50.593Z,99815.09
2023-03-06T07:54:17.900Z,99815.81
2023-03-06T07:56:45.662Z,99817.38
2023-03-06T07:59:13.008Z,99811.97
2023-03-06T08:01:40.473Z,99812.09
2023-03-06T08:04:07.949Z,99818.13
2023-03-06T08:06:35.220Z,99822.56
2023-03-06T08:09:02.779Z,99833.97
2023-03-06T08:11:31.510Z,99829.75
2023-03-06T08:13:59.557Z,99824.56
2023-03-06T08:16:28.528Z,99834.94
2023-03-06T08:18:57.044Z,99835.00
2023-03-06T08:21:25.307Z,99834.19
2023-03-06T08:23:52.743Z,99847.31
2023-03-06T08:26:22.024Z,99851.75
2023-03-06T08:28:51.460Z,99845.72
2023-03-06T08:31:25.649Z,99842.22
2023-03-06T08:33:53.630Z,99848.19
2023-03-06T08:36:21.039Z,99844.59
2023-03-06T08:38:48.389Z,99844.38
2023-03-06T08:41:16.132Z,99839.03
2023-03-06T08:43:43.761Z,99844.25
2023-03-06T08:46:11.207Z,99853.16
2023-03-06T08:48:38.547Z,99852.34
2023-03-06T08:51:05.936Z,99856.91
2023-03-06T08:53:42.710Z,99871.69
2023-03-06T08:56:17.079Z,99869.13
2023-03-06T08:58:44.494Z,99871.72
2023-03-06T09:01:18.998Z,99875.16
2023-03-06T09:03:46.359Z,99875.22
2023-03-06T09:06:14.113Z,99877.03
2023-03-06T09:08:44.561Z,99880.50
2023-03-06T09:11:12.609Z,99878.84
2023-03-06T09:13:39.946Z,99880.53
2023-03-06T09:16:08.266Z,99871.78
2023-03-06T09:18:35.591Z,99884.00
2023-03-06T09:21:04.108Z,99879.56
2023-03-06T09:23:31.478Z,99880.50
2023-03-06T09:25:59.623Z,99876.88
2023-03-06T09:28:26.920Z,99880.47
2023-03-06T09:30:54.294Z,99883.16
2023-03-06T09:33:22.186Z,99889.22
2023-03-06T09:35:53.749Z,99888.28
2023-03-06T09:38:26.743Z,99884.75
2023-03-06T09:41:00.498Z,99893.44
2023-03-06T09:43:27.694Z,99892.59
2023-03-06T09:45:55.002Z,99897.81
2023-03-06T09:48:27.017Z,99891.75
2023-03-06T09:51:02.212Z,99892.69
2023-03-06T09:53:36.965Z,99892.56
2023-03-06T09:56:10.473Z,99901.22
2023-03-06T09:58:42.189Z,99892.50
2023-03-06T10:01:19.791Z,99894.31
2023-03-06T10:04:19.624Z,99897.66
2023-03-06T10:06:55.562Z,99893.34
2023-03-06T10:09:26.997Z,99909.88
2023-03-06T10:12:02.672Z,99903.78
2023-03-06T10:14:35.823Z,99922.06
2023-03-06T10:17:03.939Z,99937.94
2023-03-06T10:19:35.713Z,99941.56
2023-03-06T10:22:21.467Z,99951.25
2023-03-06T10:24:51.467Z,99945.19
2023-03-06T10:27:28.144Z,99924.25
2023-03-06T10:30:12.259Z,99928.50
2023-03-06T10:32:49.453Z,99923.97
2023-03-06T10:35:22.383Z,99919.53
2023-03-06T10:37:49.754Z,99920.41
2023-03-06T10:40:19.605Z,99922.16
2023-03-06T10:42:46.881Z,99917.81
2023-03-06T10:45:17.731Z,99922.19
2023-03-06T10:47:45.092Z,99918.81
2023-03-06T10:50:18.601Z,99925.78
2023-03-06T10:52:58.032Z,99928.31
2023-03-06T10:55:31.641Z,99927.38
2023-03-06T10:58:16.412Z,99928.19
2023-03-06T11:00:44.775Z,99934.31
2023-03-06T11:03:22.698Z,99930.88
2023-03-06T11:05:54.197Z,99937.84
2023-03-06T11:08:24.368Z,99929.06
2023-03-06T11:11:18.550Z,99937.84
2023-03-06T11:13:57.103Z,99939.66
2023-03-06T11:16:30.599Z,99939.59
2023-03-06T11:19:03.973Z,99939.69
2023-03-06T11:21:32.772Z,99924.00
2023-03-06T11:24:04.154Z,99931.75
2023-03-06T11:26:41.490Z,99930.03
2023-03-06T11:29:28.527Z,99922.19
2023-03-06T11:31:56.561Z,99927.47
2023-03-06T11:34:36.522Z,99925.72
2023-03-06T11:37:07.155Z,99923.09
2023-03-06T11:39:49.551Z,99930.97
2023-03-06T11:42:29.203Z,99917.91
2023-03-06T11:45:15.683Z,99928.47
2023-03-06T11:47:46.471Z,99920.63
2023-03-06T11:50:36.960Z,99929.41
2023-03-06T11:53:06.297Z,99929.44
2023-03-06T11:55:42.779Z,99926.00
2023-03-06T11:58:29.255Z,99935.56
2023-03-06T12:01:06.639Z,99937.28
2023-03-06T12:03:46.408Z,99926.84
2023-03-06T12:06:32.822Z,99932.09
2023-03-06T12:09:04.974Z,99932.94
2023-03-06T12:11:42.301Z,99934.72
2023-03-06T12:14:22.662Z,99939.03
2023-03-06T12:16:59.740Z,99941.63
2023-03-06T12:19:30.788Z,99939.91
2023-03-06T12:22:10.812Z,99941.69
2023-03-06T12:24:41.054Z,99927.75
2023-03-06T12:27:31.638Z,99939.09
2023-03-06T12:29:58.845Z,99941.72
2023-03-06T12:32:31.981Z,99941.75
2023-03-06T12:35:18.199Z,99939.97
2023-03-06T12:37:48.906Z,99934.72
2023-03-06T12:40:19.244Z,99938.22
2023-03-06T12:43:18.820Z,99939.06
2023-03-06T12:45:48.221Z,99944.28
2023-03-06T12:48:19.627Z,99946.91
2023-03-06T12:50:47.306Z,99945.09
2023-03-06T12:53:19.223Z,99946.84
2023-03-06T12:55:47.621Z,99946.03
2023-03-06T12:58:30.232Z,99950.38
2023-03-06T13:01:04.382Z,99951.22
2023-03-06T13:03:36.793Z,99941.66
2023-03-06T13:06:14.129Z,99956.47
2023-03-06T13:09:05.433Z,99941.63
2023-03-06T13:11:44.757Z,99948.59
2023-03-06T13:14:22.702Z,99950.41
2023-03-06T13:16:50.190Z,99944.28
2023-03-06T13:19:22.532Z,99948.66
2023-03-06T13:21:55.621Z,99950.34
2023-03-06T13:24:52.503Z,99939.03
2023-03-06T13:27:40.876Z,99946.84
2023-03-06T13:30:22.089Z,99944.28
2023-03-06T13:32:52.743Z,99941.59
2023-03-06T13:35:32.434Z,99953.75
2023-03-06T13:38:01.261Z,99953.81
2023-03-06T13:40:33.437Z,99946.91
2023-03-06T13:43:12.697Z,99946.88
2023-03-06T13:45:44.317Z,99944.28
2023-03-06T13:48:43.156Z,99940.78
2023-03-06T13:51:16.177Z,99943.38
2023-03-06T13:53:44.635Z,99939.91
2023-03-06T13:56:30.996Z,99943.38
2023-03-06T13:58:58.194Z,99939.00
2023-03-06T14:01:44.270Z,99946.84
2023-03-06T14:04:20.652Z,99946.81
2023-03-06T14:06:51.120Z,99941.63
2023-03-06T14:09:30.734Z,99945.13
2023-03-06T14:12:00.741Z,99941.69
2023-03-06T14:14:34.906Z,99936.38
2023-03-06T14:17:05.128Z,99939.88
2023-03-06T14:19:36.458Z,99940.75
2023-03-06T14:22:04.346Z,99946.78
2023-03-06T14:24:37.131Z,99946.78
2023-03-06T14:27:04.658Z,99949.50
2023-03-06T14:29:32.820Z,99948.63
2023-03-06T14:32:02.379Z,99948.59
2023-03-06T14:34:33.031Z,99949.50
2023-03-06T14:37:02.154Z,99947.72
2023-03-06T14:39:29.485Z,99952.91
2023-03-06T14:42:15.139Z,99959.00
2023-03-06T14:44:42.596Z,99952.03
2023-03-06T14:47:12.694Z,99950.28
2023-03-06T14:49:40.053Z,99952.03
2023-03-06T14:52:17.664Z,99955.56
2023-03-06T14:54:46.758Z,99922.50
2023-03-06T14:57:18.916Z,99943.31
2023-03-06T14:59:52.618Z,99949.41
2023-03-06T15:02:28.846Z,99949.50
2023-03-06T15:05:03.288Z,99955.50
2023-03-06T15:07:32.528Z,99955.44
2023-03-06T15:10:00.447Z,99951.97
2023-03-06T15:12:29.689Z,99951.13
2023-03-06T15:15:01.138Z,99951.97
2023-03-06T15:17:29.534Z,99962.44
2023-03-06T15:20:01.196Z,99956.28
2023-03-06T15:22:37.957Z,99953.75
2023-03-06T15:25:26.908Z,99950.28
2023-03-06T15:27:59.643Z,99953.88
2023-03-06T15:30:29.016Z,99946.03
2023-03-06T15:33:28.677Z,99957.34
2023-03-06T15:36:03.303Z,99967.78
2023-03-06T15:38:30.673Z,99954.72
2023-03-06T15:41:00.669Z,99957.31
2023-03-06T15:43:28.906Z,99958.22
2023-03-06T15:45:58.779Z,99956.47
2023-03-06T15:48:26.453Z,99958.16
2023-03-06T15:50:53.769Z,99958.09
2023-03-06T15:53:21.099Z,99955.53
2023-03-06T15:55:49.077Z,99959.06
2023-03-06T15:58:20.694Z,99953.81
2023-03-06T16:00:48.259Z,99958.94
2023-03-06T16:03:15.488Z,99955.44
2023-03-06T16:05:42.768Z,99961.53
2023-03-06T16:08:15.346Z,99957.13
2023-03-06T16:10:44.111Z,99958.88
2023-03-06T16:13:13.972Z,99962.34
2023-03-06T16:15:46.411Z,99958.88
2023-03-06T16:18:13.688Z,99968.50
2023-03-06T16:20:41.666Z,99962.38
2023-03-06T16:23:12.340Z,99967.59
2023-03-06T16:25:40.647Z,99966.72
2023-03-06T16:28:15.561Z,99964.09
2023-03-06T16:30:44.349Z,99970.19
2023-03-06T16:33:12.369Z,99968.47
2023-03-06T16:35:41.244Z,99964.13
2023-03-06T16:38:11.064Z,99967.59
2023-03-06T16:40:41.406Z,99966.75
2023-03-06T16:43:10.565Z,99964.13
2023-03-06T16:45:39.155Z,99969.34
2023-03-06T16:48:07.261Z,99972.91
2023-03-06T16:50:38.418Z,99966.78
2023-03-06T16:53:06.209Z,99972.88
2023-03-06T16:55:33.640Z,99972.84
2023-03-06T16:58:01.918Z,99969.34
2023-03-06T17:00:32.159Z,99971.09
2023-03-06T17:03:01.429Z,99971.09
2023-03-06T17:05:29.020Z,99969.34
2023-03-06T17:07:56.541Z,99976.34
2023-03-06T17:10:26.384Z,99960.63
2023-03-06T17:12:54.096Z,99978.94
2023-03-06T17:15:21.542Z,99971.94
2023-03-06T17:17:49.187Z,99976.31
2023-03-06T17:20:16.470Z,99969.31
2023-03-06T17:22:44.059Z,99969.28
2023-03-06T17:25:11.695Z,99974.53
2023-03-06T17:27:38.900Z,99978.97
2023-03-06T17:30:06.615Z,99976.31
2023-03-06T17:32:34.239Z,99972.88
2023-03-06T17:35:02.061Z,99972.88
2023-03-06T17:37:29.414Z,99973.72
2023-03-06T17:39:56.725Z,99978.06
2023-03-06T17:42:24.381Z,99975.47
2023-03-06T17:44:53.110Z,99971.97
2023-03-06T17:47:20.321Z,99974.56
2023-03-06T17:49:47.632Z,99967.59
2023-03-06T17:52:14.907Z,99971.94
2023-03-06T17:54:42.258Z,99964.13
2023-03-06T17:57:09.467Z,99969.34
2023-03-06T17:59:36.819Z,99969.34
2023-03-06T18:02:06.310Z,99974.56
2023-03-06T18:04:34.445Z,99968.47
2023-03-06T18:07:01.675Z,99965.84
2023-03-06T18:09:30.261Z,99965.81
2023-03-06T18:11:57.483Z,99961.44
2023-03-06T18:14:25.652Z,99958.81
2023-03-06T18:16:52.928Z,99963.16
2023-03-06T18:19:21.447Z,99956.22
2023-03-06T18:21:48.732Z,99964.06
2023-03-06T18:24:16.051Z,99958.81
2023-03-06T18:26:43.407Z,99964.06
2023-03-06T18:29:11.760Z,99965.81
2023-03-06T18:31:43.981Z,99965.81
2023-03-06T18:34:12.842Z,99964.03
2023-03-06T18:36:42.417Z,99965.78
2023-03-06T18:39:12.022Z,99965.81
2023-03-06T18:41:39.387Z,99967.59
2023-03-06T18:44:06.650Z,99962.34
2023-03-06T18:46:35.311Z,99960.59
2023-03-06T18:49:02.920Z,99966.69
2023-03-06T18:51:30.455Z,99971.03
2023-03-06T18:53:58.425Z,99967.53
2023-03-06T18:56:25.806Z,99966.69
2023-03-06T18:58:53.574Z,99971.91
2023-03-06T19:01:22.455Z,99978.00
2023-03-06T19:03:49.903Z,99970.16
2023-03-06T19:06:17.398Z,99964.03
2023-03-06T19:08:44.925Z,99970.16
2023-03-06T19:11:13.554Z,99969.28
2023-03-06T19:13:40.837Z,99959.72
2023-03-06T19:16:09.635Z,99964.03
2023-03-06T19:18:38.672Z,99964.03
2023-03-06T19:21:11.830Z,99965.78
2023-03-06T19:23:39.623Z,99964.06
2023-03-06T19:26:08.269Z,99965.81
2023-03-06T19:28:37.067Z,99968.44
2023-03-06T19:31:10.040Z,99968.44
2023-03-06T19:33:40.346Z,99957.13
2023-03-06T19:36:08.674Z,99969.28
2023-03-06T19:38:35.988Z,99958.00
2023-03-06T19:41:03.672Z,99959.72
2023-03-06T19:43:32.140Z,99963.19
2023-03-06T19:46:00.689Z,99965.84
2023-03-06T19:48:28.020Z,99957.97
2023-03-06T19:50:55.270Z,99964.97
2023-03-06T19:53:23.161Z,99963.22
2023-03-06T19:55:51.081Z,99968.41
2023-03-06T19:58:18.359Z,99967.53
2023-03-06T20:00:45.647Z,99965.81
2023-03-06T20:03:12.878Z,99970.19
2023-03-06T20:05:45.703Z,99979.81
2023-03-06T20:08:13.368Z,99968.47
2023-03-06T20:10:40.930Z,99968.44
2023-03-06T20:13:08.194Z,99961.47
2023-03-06T20:15:36.992Z,99962.34
2023-03-06T20:18:08.399Z,99974.53
2023-03-06T20:20:37.860Z,99960.56
2023-03-06T20:23:05.834Z,99962.31
2023-03-06T20:25:35.108Z,99960.59
2023-03-06T20:28:02.517Z,99958.88
2023-03-06T20:30:37.731Z,99957.13
2023-03-06T20:33:05.829Z,99960.63
2023-03-06T20:35:33.653Z,99953.63
2023-03-06T20:38:03.166Z,99954.50
2023-03-06T20:40:30.714Z,99951.84
2023-03-06T20:42:59.388Z,99952.75
2023-03-06T20:45:28.131Z,99943.16
2023-03-06T20:47:57.282Z,99950.09
2023-03-06T20:50:25.770Z,99949.25
2023-03-06T20:52:54.207Z,99954.47
2023-03-06T20:55:24.484Z,99948.34
2023-03-06T20:57:51.889Z,99951.91
2023-03-06T21:00:19.752Z,99949.28
2023-03-06T21:02:47.198Z,99950.16
2023-03-06T21:05:14.468Z,99942.28
2023-03-06T21:07:41.816Z,99941.41
2023-03-06T21:10:09.414Z,99942.28
2023-03-06T21:12:36.792Z,99937.88
2023-03-06T21:15:04.221Z,99939.63
2023-03-06T21:17:33.248Z,99936.97
2023-03-06T21:20:00.462Z,99938.69
2023-03-06T21:22:30.029Z,99941.28
2023-03-06T21:24:57.444Z,99944.75
2023-03-06T21:27:24.657Z,99932.56
2023-03-06T21:29:51.955Z,99936.03
2023-03-06T21:32:19.363Z,99939.53
2023-03-06T21:34:46.677Z,99929.94
2023-03-06T21:37:14.037Z,99937.78
2023-03-06T21:39:41.406Z,99937.78
2023-03-06T21:42:08.616Z,99941.28
2023-03-06T21:44:35.943Z,99934.28
2023-03-06T21:47:03.261Z,99939.50
2023-03-06T21:49:31.417Z,99944.69
2023-03-06T21:51:59.803Z,99939.50
2023-03-06T21:54:29.365Z,99935.97
2023-03-06T21:56:56.986Z,99939.47
2023-03-06T21:59:24.198Z,99937.72
2023-03-06T22:01:52.660Z,99929.84
2023-03-06T22:04:19.885Z,99933.31
2023-03-06T22:06:47.207Z,99934.22
2023-03-06T22:09:19.055Z,99932.44
2023-03-06T22:11:47.026Z,99929.84
2023-03-06T22:14:14.939Z,99931.56
2023-03-06T22:16:42.264Z,99928.97
2023-03-06T22:19:09.516Z,99937.69
2023-03-06T22:21:38.610Z,99938.53
2023-03-06T22:24:07.443Z,99931.56
2023-03-06T22:26:35.191Z,99935.06
2023-03-06T22:29:02.530Z,99933.31
2023-03-06T22:31:30.409Z,99930.72
2023-03-06T22:33:59.214Z,99935.09
2023-03-06T22:36:26.864Z,99946.50
2023-03-06T22:38:55.535Z,99950.94
2023-03-06T22:41:23.282Z,99948.34
2023-03-06T22:43:50.857Z,99953.63
2023-03-06T22:46:18.516Z,99950.16
2023-03-06T22:48:45.935Z,99948.41
2023-03-06T22:51:14.919Z,99955.44
2023-03-06T22:53:43.216Z,99953.69
2023-03-06T22:56:12.203Z,99957.16
2023-03-06T22:58:40.694Z,99952.03
2023-03-06T23:01:10.020Z,99947.63
2023-03-06T23:03:38.225Z,99948.50
2023-03-06T23:06:06.851Z,99950.28
2023-03-06T23:08:34.170Z,99950.28
2023-03-06T23:11:01.455Z,99948.59
2023-03-06T23:13:47.435Z,99919.84
2023-03-06T23:16:33.916Z,99942.47
2023-03-06T23:19:19.690Z,99938.91
2023-03-06T23:22:05.733Z,99941.50
2023-03-06T23:24:51.889Z,99938.88
2023-03-06T23:27:20.378Z,99934.53
2023-03-06T23:29:49.823Z,99934.56
2023-03-06T23:32:18.518Z,99929.34
2023-03-06T23:34:47.661Z,99938.00
2023-03-06T23:37:16.116Z,99937.16
2023-03-06T23:39:44.055Z,99940.63
2023-03-06T23:42:11.493Z,99943.19
2023-03-06T23:44:39.478Z,99942.31
2023-03-06T23:47:06.824Z,99932.72
2023-03-06T23:49:34.038Z,99928.41
2023-03-06T23:52:03.736Z,99917.03
2023-03-06T23:54:31.347Z,99929.19
2023-03-06T23:56:58.542Z,99934.41
2023-03-06T23:59:28.088Z,99930.88
